sensor_id;sensor_type;location;lat;lon;timestamp;temperature;humidity
18721;DHT22;9489;50.948;3.114;2024-01-16T00:01:20;0.80;99.90
18721;DHT22;9489;50.948;3.114;2024-01-16T00:03:46;0.80;99.90
18721;DHT22;9489;50.948;3.114;2024-01-16T00:06:12;0.70;99.90
18721;DHT22;9489;50.948;3.114;2024-01-16T00:08:38;0.70;99.90
18721;DHT22;9489;50.948;3.114;2024-01-16T00:11:03;0.70;99.90
18721;DHT22;9489;50.948;3.114;2024-01-16T00:13:29;0.70;99.90
18721;DHT22;9489;50.948;3.114;2024-01-16T00:15:55;0.60;99.90
18721;DHT22;9489;50.948;3.114;2024-01-16T00:18:23;0.60;99.90
18721;DHT22;9489;50.948;3.114;2024-01-16T00:20:49;0.60;99.90
18721;DHT22;9489;50.948;3.114;2024-01-16T00:23:15;0.60;99.90
18721;DHT22;9489;50.948;3.114;2024-01-16T00:25:40;0.50;99.90
18721;DHT22;9489;50.948;3.114;2024-01-16T00:28:07;0.50;99.90
18721;DHT22;9489;50.948;3.114;2024-01-16T00:30:32;0.50;99.90
18721;DHT22;9489;50.948;3.114;2024-01-16T00:32:59;0.50;99.90
18721;DHT22;9489;50.948;3.114;2024-01-16T00:35:25;0.50;99.90
18721;DHT22;9489;50.948;3.114;2024-01-16T00:37:50;0.50;99.90
18721;DHT22;9489;50.948;3.114;2024-01-16T00:40:16;0.50;99.90
18721;DHT22;9489;50.948;3.114;2024-01-16T00:42:42;0.50;99.90
18721;DHT22;9489;50.948;3.114;2024-01-16T00:45:08;0.50;99.90
18721;DHT22;9489;50.948;3.114;2024-01-16T00:47:33;0.50;99.90
18721;DHT22;9489;50.948;3.114;2024-01-16T00:49:59;0.50;99.90
18721;DHT22;9489;50.948;3.114;2024-01-16T00:52:26;0.50;99.90
18721;DHT22;9489;50.948;3.114;2024-01-16T00:54:52;0.50;99.90
18721;DHT22;9489;50.948;3.114;2024-01-16T00:57:18;0.50;99.90
18721;DHT22;9489;50.948;3.114;2024-01-16T00:59:48;0.50;99.90
18721;DHT22;9489;50.948;3.114;2024-01-16T01:02:15;0.50;99.90
18721;DHT22;9489;50.948;3.114;2024-01-16T01:04:40;0.60;99.90
18721;DHT22;9489;50.948;3.114;2024-01-16T01:07:09;0.50;99.90
18721;DHT22;9489;50.948;3.114;2024-01-16T01:09:37;0.50;99.90
18721;DHT22;9489;50.948;3.114;2024-01-16T01:12:03;0.50;99.90
18721;DHT22;9489;50.948;3.114;2024-01-16T01:14:29;0.50;99.90
18721;DHT22;9489;50.948;3.114;2024-01-16T01:16:55;0.50;99.90
18721;DHT22;9489;50.948;3.114;2024-01-16T01:19:20;0.50;99.90
18721;DHT22;9489;50.948;3.114;2024-01-16T01:21:46;0.60;99.90
18721;DHT22;9489;50.948;3.114;2024-01-16T01:24:12;0.60;99.90
18721;DHT22;9489;50.948;3.114;2024-01-16T01:26:37;0.60;99.90
18721;DHT22;9489;50.948;3.114;2024-01-16T01:29:03;0.60;99.90
18721;DHT22;9489;50.948;3.114;2024-01-16T01:31:29;0.60;99.90
18721;DHT22;9489;50.948;3.114;2024-01-16T01:33:54;0.60;99.90
18721;DHT22;9489;50.948;3.114;2024-01-16T01:36:20;0.60;99.90
18721;DHT22;9489;50.948;3.114;2024-01-16T01:38:45;0.60;99.90
18721;DHT22;9489;50.948;3.114;2024-01-16T01:41:11;0.60;99.90
18721;DHT22;9489;50.948;3.114;2024-01-16T01:43:39;0.60;99.90
18721;DHT22;9489;50.948;3.114;2024-01-16T01:48:35;0.50;99.90
18721;DHT22;9489;50.948;3.114;2024-01-16T01:51:01;0.50;99.90
18721;DHT22;9489;50.948;3.114;2024-01-16T01:53:28;0.50;99.90
18721;DHT22;9489;50.948;3.114;2024-01-16T01:55:56;0.50;99.90
18721;DHT22;9489;50.948;3.114;2024-01-16T01:58:23;0.50;99.90
18721;DHT22;9489;50.948;3.114;2024-01-16T02:00:48;0.50;99.90
18721;DHT22;9489;50.948;3.114;2024-01-16T02:03:14;0.50;99.90
18721;DHT22;9489;50.948;3.114;2024-01-16T02:05:40;0.40;99.90
18721;DHT22;9489;50.948;3.114;2024-01-16T02:08:07;0.40;99.90
18721;DHT22;9489;50.948;3.114;2024-01-16T02:10:35;0.40;99.90
18721;DHT22;9489;50.948;3.114;2024-01-16T02:13:03;0.40;99.90
18721;DHT22;9489;50.948;3.114;2024-01-16T02:15:29;0.40;99.90
18721;DHT22;9489;50.948;3.114;2024-01-16T02:17:54;0.40;99.90
18721;DHT22;9489;50.948;3.114;2024-01-16T02:20:22;0.40;99.90
18721;DHT22;9489;50.948;3.114;2024-01-16T02:22:49;0.40;99.90
18721;DHT22;9489;50.948;3.114;2024-01-16T02:25:17;0.40;99.90
18721;DHT22;9489;50.948;3.114;2024-01-16T02:27:43;0.40;99.90
18721;DHT22;9489;50.948;3.114;2024-01-16T02:30:09;0.40;99.90
18721;DHT22;9489;50.948;3.114;2024-01-16T02:32:35;0.40;99.90
18721;DHT22;9489;50.948;3.114;2024-01-16T02:35:00;0.40;99.90
18721;DHT22;9489;50.948;3.114;2024-01-16T02:37:26;0.30;99.90
18721;DHT22;9489;50.948;3.114;2024-01-16T02:39:52;0.30;99.90
18721;DHT22;9489;50.948;3.114;2024-01-16T02:42:17;0.30;99.90
18721;DHT22;9489;50.948;3.114;2024-01-16T02:44:43;0.30;99.90
18721;DHT22;9489;50.948;3.114;2024-01-16T02:47:08;0.30;99.90
18721;DHT22;9489;50.948;3.114;2024-01-16T02:49:34;0.30;99.90
18721;DHT22;9489;50.948;3.114;2024-01-16T02:52:02;0.30;99.90
18721;DHT22;9489;50.948;3.114;2024-01-16T02:54:28;0.30;99.90
18721;DHT22;9489;50.948;3.114;2024-01-16T02:56:53;0.30;99.90
18721;DHT22;9489;50.948;3.114;2024-01-16T02:59:19;0.20;99.90
18721;DHT22;9489;50.948;3.114;2024-01-16T03:01:44;0.30;99.90
18721;DHT22;9489;50.948;3.114;2024-01-16T03:04:10;0.30;99.90
18721;DHT22;9489;50.948;3.114;2024-01-16T03:06:36;0.30;99.90
18721;DHT22;9489;50.948;3.114;2024-01-16T03:09:02;0.30;99.90
18721;DHT22;9489;50.948;3.114;2024-01-16T03:11:28;0.20;99.90
18721;DHT22;9489;50.948;3.114;2024-01-16T03:13:53;0.30;99.90
18721;DHT22;9489;50.948;3.114;2024-01-16T03:16:19;0.30;99.90
18721;DHT22;9489;50.948;3.114;2024-01-16T03:18:45;0.30;99.90
18721;DHT22;9489;50.948;3.114;2024-01-16T03:21:13;0.30;99.90
18721;DHT22;9489;50.948;3.114;2024-01-16T03:23:39;0.30;99.90
18721;DHT22;9489;50.948;3.114;2024-01-16T03:26:04;0.30;99.90
18721;DHT22;9489;50.948;3.114;2024-01-16T03:28:31;0.30;99.90
18721;DHT22;9489;50.948;3.114;2024-01-16T03:30:57;0.30;99.90
18721;DHT22;9489;50.948;3.114;2024-01-16T03:33:22;0.30;99.90
18721;DHT22;9489;50.948;3.114;2024-01-16T03:35:48;0.30;99.90
18721;DHT22;9489;50.948;3.114;2024-01-16T03:38:14;0.40;99.90
18721;DHT22;9489;50.948;3.114;2024-01-16T03:40:39;0.40;99.90
18721;DHT22;9489;50.948;3.114;2024-01-16T03:43:05;0.40;99.90
18721;DHT22;9489;50.948;3.114;2024-01-16T03:45:31;0.40;99.90
18721;DHT22;9489;50.948;3.114;2024-01-16T03:47:58;0.50;99.90
18721;DHT22;9489;50.948;3.114;2024-01-16T03:50:23;0.50;99.90
18721;DHT22;9489;50.948;3.114;2024-01-16T03:52:49;0.60;99.90
18721;DHT22;9489;50.948;3.114;2024-01-16T03:55:15;0.50;99.90
18721;DHT22;9489;50.948;3.114;2024-01-16T03:57:40;0.50;99.90
18721;DHT22;9489;50.948;3.114;2024-01-16T04:00:08;0.50;99.90
18721;DHT22;9489;50.948;3.114;2024-01-16T04:02:37;0.50;99.90
18721;DHT22;9489;50.948;3.114;2024-01-16T04:05:04;0.50;99.90
18721;DHT22;9489;50.948;3.114;2024-01-16T04:07:30;0.50;99.90
18721;DHT22;9489;50.948;3.114;2024-01-16T04:09:55;0.50;99.90
18721;DHT22;9489;50.948;3.114;2024-01-16T04:12:21;0.50;99.90
18721;DHT22;9489;50.948;3.114;2024-01-16T04:14:47;0.50;99.90
18721;DHT22;9489;50.948;3.114;2024-01-16T04:17:13;0.50;99.90
18721;DHT22;9489;50.948;3.114;2024-01-16T04:19:38;0.50;99.90
18721;DHT22;9489;50.948;3.114;2024-01-16T04:22:04;0.50;99.90
18721;DHT22;9489;50.948;3.114;2024-01-16T04:24:30;0.50;99.90
18721;DHT22;9489;50.948;3.114;2024-01-16T04:26:56;0.50;99.90
18721;DHT22;9489;50.948;3.114;2024-01-16T04:29:23;0.50;99.90
18721;DHT22;9489;50.948;3.114;2024-01-16T04:31:48;0.50;99.90
18721;DHT22;9489;50.948;3.114;2024-01-16T04:34:14;0.50;99.90
18721;DHT22;9489;50.948;3.114;2024-01-16T04:36:39;0.50;99.90
18721;DHT22;9489;50.948;3.114;2024-01-16T04:39:05;0.50;99.90
18721;DHT22;9489;50.948;3.114;2024-01-16T04:41:31;0.50;99.90
18721;DHT22;9489;50.948;3.114;2024-01-16T04:43:56;0.50;99.90
18721;DHT22;9489;50.948;3.114;2024-01-16T04:46:22;0.50;99.90
18721;DHT22;9489;50.948;3.114;2024-01-16T04:48:47;0.50;99.90
18721;DHT22;9489;50.948;3.114;2024-01-16T04:51:13;0.50;99.90
18721;DHT22;9489;50.948;3.114;2024-01-16T04:53:39;0.50;99.90
18721;DHT22;9489;50.948;3.114;2024-01-16T04:56:06;0.40;99.90
18721;DHT22;9489;50.948;3.114;2024-01-16T04:58:31;0.40;99.90
18721;DHT22;9489;50.948;3.114;2024-01-16T05:00:58;0.40;99.90
18721;DHT22;9489;50.948;3.114;2024-01-16T05:03:24;0.50;99.90
18721;DHT22;9489;50.948;3.114;2024-01-16T05:05:50;0.50;99.90
18721;DHT22;9489;50.948;3.114;2024-01-16T05:08:15;0.50;99.90
18721;DHT22;9489;50.948;3.114;2024-01-16T05:10:41;0.50;99.90
18721;DHT22;9489;50.948;3.114;2024-01-16T05:13:06;0.50;99.90
18721;DHT22;9489;50.948;3.114;2024-01-16T05:15:32;0.60;99.90
18721;DHT22;9489;50.948;3.114;2024-01-16T05:17:58;0.60;99.90
18721;DHT22;9489;50.948;3.114;2024-01-16T05:20:23;0.60;99.90
18721;DHT22;9489;50.948;3.114;2024-01-16T05:22:49;0.60;99.90
18721;DHT22;9489;50.948;3.114;2024-01-16T05:25:15;0.60;99.90
18721;DHT22;9489;50.948;3.114;2024-01-16T05:27:42;0.60;99.90
18721;DHT22;9489;50.948;3.114;2024-01-16T05:30:09;0.60;99.90
18721;DHT22;9489;50.948;3.114;2024-01-16T05:32:35;0.60;99.90
18721;DHT22;9489;50.948;3.114;2024-01-16T05:35:01;0.60;99.90
18721;DHT22;9489;50.948;3.114;2024-01-16T05:37:26;0.60;99.90
18721;DHT22;9489;50.948;3.114;2024-01-16T05:39:54;0.60;99.90
18721;DHT22;9489;50.948;3.114;2024-01-16T05:42:20;0.60;99.90
18721;DHT22;9489;50.948;3.114;2024-01-16T05:44:46;0.70;99.90
18721;DHT22;9489;50.948;3.114;2024-01-16T05:47:11;0.70;99.90
18721;DHT22;9489;50.948;3.114;2024-01-16T05:49:37;0.70;99.90
18721;DHT22;9489;50.948;3.114;2024-01-16T05:52:03;0.70;99.90
18721;DHT22;9489;50.948;3.114;2024-01-16T05:54:29;0.70;99.90
18721;DHT22;9489;50.948;3.114;2024-01-16T05:56:54;0.60;99.90
18721;DHT22;9489;50.948;3.114;2024-01-16T05:59:20;0.70;99.90
18721;DHT22;9489;50.948;3.114;2024-01-16T06:01:46;0.60;99.90
18721;DHT22;9489;50.948;3.114;2024-01-16T06:04:11;0.60;99.90
18721;DHT22;9489;50.948;3.114;2024-01-16T06:06:37;0.60;99.90
18721;DHT22;9489;50.948;3.114;2024-01-16T06:09:03;0.50;99.90
18721;DHT22;9489;50.948;3.114;2024-01-16T06:11:32;0.50;99.90
18721;DHT22;9489;50.948;3.114;2024-01-16T06:13:58;0.50;99.90
18721;DHT22;9489;50.948;3.114;2024-01-16T06:16:25;0.50;99.90
18721;DHT22;9489;50.948;3.114;2024-01-16T06:18:51;0.50;99.90
18721;DHT22;9489;50.948;3.114;2024-01-16T06:21:16;0.50;99.90
18721;DHT22;9489;50.948;3.114;2024-01-16T06:23:43;0.40;99.90
18721;DHT22;9489;50.948;3.114;2024-01-16T06:26:09;0.40;99.90
18721;DHT22;9489;50.948;3.114;2024-01-16T06:28:35;0.40;99.90
18721;DHT22;9489;50.948;3.114;2024-01-16T06:31:01;0.30;99.90
18721;DHT22;9489;50.948;3.114;2024-01-16T06:33:27;0.40;99.90
18721;DHT22;9489;50.948;3.114;2024-01-16T06:35:55;0.30;99.90
18721;DHT22;9489;50.948;3.114;2024-01-16T06:38:20;0.30;99.90
18721;DHT22;9489;50.948;3.114;2024-01-16T06:40:46;0.40;99.90
18721;DHT22;9489;50.948;3.114;2024-01-16T06:43:12;0.30;99.90
18721;DHT22;9489;50.948;3.114;2024-01-16T06:45:40;0.30;99.90
18721;DHT22;9489;50.948;3.114;2024-01-16T06:48:05;0.30;99.90
18721;DHT22;9489;50.948;3.114;2024-01-16T06:50:31;0.30;99.90
18721;DHT22;9489;50.948;3.114;2024-01-16T06:52:57;0.30;99.90
18721;DHT22;9489;50.948;3.114;2024-01-16T06:55:22;0.30;99.90
18721;DHT22;9489;50.948;3.114;2024-01-16T06:57:48;0.30;99.90
18721;DHT22;9489;50.948;3.114;2024-01-16T07:00:14;0.20;99.90
18721;DHT22;9489;50.948;3.114;2024-01-16T07:02:40;0.20;99.90
18721;DHT22;9489;50.948;3.114;2024-01-16T07:05:11;0.10;99.90
18721;DHT22;9489;50.948;3.114;2024-01-16T07:07:37;0.20;99.90
18721;DHT22;9489;50.948;3.114;2024-01-16T07:10:04;0.10;99.90
18721;DHT22;9489;50.948;3.114;2024-01-16T07:12:33;0.10;99.90
18721;DHT22;9489;50.948;3.114;2024-01-16T07:14:59;0.00;99.90
18721;DHT22;9489;50.948;3.114;2024-01-16T07:17:25;0.00;99.90
18721;DHT22;9489;50.948;3.114;2024-01-16T07:19:50;0.00;99.90
18721;DHT22;9489;50.948;3.114;2024-01-16T07:22:17;0.00;99.90
18721;DHT22;9489;50.948;3.114;2024-01-16T07:24:42;0.00;99.90
18721;DHT22;9489;50.948;3.114;2024-01-16T07:27:08;0.00;99.90
18721;DHT22;9489;50.948;3.114;2024-01-16T07:29:34;0.00;99.90
18721;DHT22;9489;50.948;3.114;2024-01-16T07:31:59;0.00;99.90
18721;DHT22;9489;50.948;3.114;2024-01-16T07:34:25;0.00;99.90
18721;DHT22;9489;50.948;3.114;2024-01-16T07:36:51;0.10;99.90
18721;DHT22;9489;50.948;3.114;2024-01-16T07:39:17;0.10;99.90
18721;DHT22;9489;50.948;3.114;2024-01-16T07:41:42;0.10;99.90
18721;DHT22;9489;50.948;3.114;2024-01-16T07:44:08;0.10;99.90
18721;DHT22;9489;50.948;3.114;2024-01-16T07:46:34;0.20;99.90
18721;DHT22;9489;50.948;3.114;2024-01-16T07:49:00;0.20;99.90
18721;DHT22;9489;50.948;3.114;2024-01-16T07:51:25;0.20;99.90
18721;DHT22;9489;50.948;3.114;2024-01-16T07:54:05;0.20;99.90
18721;DHT22;9489;50.948;3.114;2024-01-16T07:56:32;0.20;99.90
18721;DHT22;9489;50.948;3.114;2024-01-16T07:58:57;0.30;99.90
18721;DHT22;9489;50.948;3.114;2024-01-16T08:01:23;0.30;99.90
18721;DHT22;9489;50.948;3.114;2024-01-16T08:03:49;0.40;99.90
18721;DHT22;9489;50.948;3.114;2024-01-16T08:06:15;0.40;99.90
18721;DHT22;9489;50.948;3.114;2024-01-16T08:08:41;0.50;99.90
18721;DHT22;9489;50.948;3.114;2024-01-16T08:11:07;0.50;99.90
18721;DHT22;9489;50.948;3.114;2024-01-16T08:13:33;0.50;99.90
18721;DHT22;9489;50.948;3.114;2024-01-16T08:15:58;0.60;99.90
18721;DHT22;9489;50.948;3.114;2024-01-16T08:18:24;0.60;99.90
18721;DHT22;9489;50.948;3.114;2024-01-16T08:20:50;0.70;99.90
18721;DHT22;9489;50.948;3.114;2024-01-16T08:23:16;0.70;99.90
18721;DHT22;9489;50.948;3.114;2024-01-16T08:25:41;0.70;99.90
18721;DHT22;9489;50.948;3.114;2024-01-16T08:28:07;0.70;99.90
18721;DHT22;9489;50.948;3.114;2024-01-16T08:30:33;0.80;99.90
18721;DHT22;9489;50.948;3.114;2024-01-16T08:32:58;0.80;99.90
18721;DHT22;9489;50.948;3.114;2024-01-16T08:35:24;0.80;99.90
18721;DHT22;9489;50.948;3.114;2024-01-16T08:37:50;0.80;99.90
18721;DHT22;9489;50.948;3.114;2024-01-16T08:40:16;0.90;99.90
18721;DHT22;9489;50.948;3.114;2024-01-16T08:42:41;0.90;99.90
18721;DHT22;9489;50.948;3.114;2024-01-16T08:45:07;1.00;99.90
18721;DHT22;9489;50.948;3.114;2024-01-16T08:47:33;1.10;99.90
18721;DHT22;9489;50.948;3.114;2024-01-16T08:49:58;1.10;99.90
18721;DHT22;9489;50.948;3.114;2024-01-16T08:52:24;1.20;99.90
18721;DHT22;9489;50.948;3.114;2024-01-16T08:54:50;1.30;99.90
18721;DHT22;9489;50.948;3.114;2024-01-16T08:57:16;1.40;99.90
18721;DHT22;9489;50.948;3.114;2024-01-16T08:59:41;1.50;99.90
18721;DHT22;9489;50.948;3.114;2024-01-16T09:02:07;1.50;99.90
18721;DHT22;9489;50.948;3.114;2024-01-16T09:04:33;1.60;99.90
18721;DHT22;9489;50.948;3.114;2024-01-16T09:07:00;1.60;99.90
18721;DHT22;9489;50.948;3.114;2024-01-16T09:09:25;1.60;99.90
18721;DHT22;9489;50.948;3.114;2024-01-16T09:11:51;1.60;99.90
18721;DHT22;9489;50.948;3.114;2024-01-16T09:14:17;1.70;99.90
18721;DHT22;9489;50.948;3.114;2024-01-16T09:16:42;1.70;99.90
18721;DHT22;9489;50.948;3.114;2024-01-16T09:19:08;1.80;99.90
18721;DHT22;9489;50.948;3.114;2024-01-16T09:21:35;1.90;99.90
18721;DHT22;9489;50.948;3.114;2024-01-16T09:24:00;2.00;99.90
18721;DHT22;9489;50.948;3.114;2024-01-16T09:26:26;2.40;99.90
18721;DHT22;9489;50.948;3.114;2024-01-16T09:28:52;3.20;99.90
18721;DHT22;9489;50.948;3.114;2024-01-16T09:31:17;4.30;99.90
18721;DHT22;9489;50.948;3.114;2024-01-16T09:33:43;5.30;99.90
18721;DHT22;9489;50.948;3.114;2024-01-16T09:36:09;5.60;99.90
18721;DHT22;9489;50.948;3.114;2024-01-16T09:38:35;5.80;99.90
18721;DHT22;9489;50.948;3.114;2024-01-16T09:41:00;6.20;99.90
18721;DHT22;9489;50.948;3.114;2024-01-16T09:43:28;6.90;99.90
18721;DHT22;9489;50.948;3.114;2024-01-16T09:45:56;7.50;99.90
18721;DHT22;9489;50.948;3.114;2024-01-16T09:48:22;8.20;99.90
18721;DHT22;9489;50.948;3.114;2024-01-16T09:50:49;8.50;99.90
18721;DHT22;9489;50.948;3.114;2024-01-16T09:53:14;8.90;99.90
18721;DHT22;9489;50.948;3.114;2024-01-16T09:55:40;9.40;99.90
18721;DHT22;9489;50.948;3.114;2024-01-16T09:58:07;10.00;99.90
18721;DHT22;9489;50.948;3.114;2024-01-16T10:00:38;10.20;98.10
18721;DHT22;9489;50.948;3.114;2024-01-16T10:03:04;10.70;96.10
18721;DHT22;9489;50.948;3.114;2024-01-16T10:05:30;10.90;95.30
18721;DHT22;9489;50.948;3.114;2024-01-16T10:07:57;10.90;92.40
18721;DHT22;9489;50.948;3.114;2024-01-16T10:10:23;10.90;92.10
18721;DHT22;9489;50.948;3.114;2024-01-16T10:12:53;11.00;91.00
18721;DHT22;9489;50.948;3.114;2024-01-16T10:15:21;11.40;90.90
18721;DHT22;9489;50.948;3.114;2024-01-16T10:17:47;11.60;88.50
18721;DHT22;9489;50.948;3.114;2024-01-16T10:20:13;12.00;81.90
18721;DHT22;9489;50.948;3.114;2024-01-16T10:22:39;12.10;81.30
18721;DHT22;9489;50.948;3.114;2024-01-16T10:25:10;12.30;76.90
18721;DHT22;9489;50.948;3.114;2024-01-16T10:27:39;12.60;73.30
18721;DHT22;9489;50.948;3.114;2024-01-16T10:30:06;12.60;73.90
18721;DHT22;9489;50.948;3.114;2024-01-16T10:32:35;13.20;71.10
18721;DHT22;9489;50.948;3.114;2024-01-16T10:37:48;13.00;63.30
18721;DHT22;9489;50.948;3.114;2024-01-16T10:40:18;13.10;61.80
18721;DHT22;9489;50.948;3.114;2024-01-16T10:42:45;13.10;60.50
18721;DHT22;9489;50.948;3.114;2024-01-16T10:45:18;13.20;60.00
18721;DHT22;9489;50.948;3.114;2024-01-16T10:47:49;13.40;57.50
18721;DHT22;9489;50.948;3.114;2024-01-16T10:50:15;13.10;56.60
18721;DHT22;9489;50.948;3.114;2024-01-16T10:52:48;13.30;55.10
18721;DHT22;9489;50.948;3.114;2024-01-16T10:55:21;13.40;52.50
18721;DHT22;9489;50.948;3.114;2024-01-16T10:57:51;13.00;52.80
18721;DHT22;9489;50.948;3.114;2024-01-16T11:00:21;13.00;53.40
18721;DHT22;9489;50.948;3.114;2024-01-16T11:03:01;12.90;53.70
18721;DHT22;9489;50.948;3.114;2024-01-16T11:05:31;13.10;51.90
18721;DHT22;9489;50.948;3.114;2024-01-16T11:07:59;13.00;51.60
18721;DHT22;9489;50.948;3.114;2024-01-16T11:10:27;13.30;52.90
18721;DHT22;9489;50.948;3.114;2024-01-16T11:12:54;14.00;49.70
18721;DHT22;9489;50.948;3.114;2024-01-16T11:15:21;14.20;48.30
18721;DHT22;9489;50.948;3.114;2024-01-16T11:17:47;14.00;48.20
18721;DHT22;9489;50.948;3.114;2024-01-16T11:20:13;14.20;45.80
18721;DHT22;9489;50.948;3.114;2024-01-16T11:22:43;14.50;46.20
18721;DHT22;9489;50.948;3.114;2024-01-16T11:27:36;14.50;42.20
18721;DHT22;9489;50.948;3.114;2024-01-16T11:30:04;14.10;43.00
18721;DHT22;9489;50.948;3.114;2024-01-16T11:32:34;14.00;43.50
18721;DHT22;9489;50.948;3.114;2024-01-16T11:35:06;14.40;43.20
18721;DHT22;9489;50.948;3.114;2024-01-16T11:37:32;14.30;40.90
18721;DHT22;9489;50.948;3.114;2024-01-16T11:42:42;13.50;41.90
18721;DHT22;9489;50.948;3.114;2024-01-16T11:48:13;13.70;40.30
18721;DHT22;9489;50.948;3.114;2024-01-16T11:50:39;13.00;42.70
18721;DHT22;9489;50.948;3.114;2024-01-16T11:53:05;13.40;41.80
18721;DHT22;9489;50.948;3.114;2024-01-16T11:55:35;13.20;42.70
18721;DHT22;9489;50.948;3.114;2024-01-16T12:00:55;13.90;40.40
18721;DHT22;9489;50.948;3.114;2024-01-16T12:03:23;14.00;40.50
18721;DHT22;9489;50.948;3.114;2024-01-16T12:05:58;14.50;40.00
18721;DHT22;9489;50.948;3.114;2024-01-16T12:08:25;14.10;38.70
18721;DHT22;9489;50.948;3.114;2024-01-16T12:10:51;14.30;39.60
18721;DHT22;9489;50.948;3.114;2024-01-16T12:13:17;14.50;39.10
18721;DHT22;9489;50.948;3.114;2024-01-16T12:15:43;14.30;37.70
18721;DHT22;9489;50.948;3.114;2024-01-16T12:18:09;14.00;38.40
18721;DHT22;9489;50.948;3.114;2024-01-16T12:20:36;14.30;38.10
18721;DHT22;9489;50.948;3.114;2024-01-16T12:23:06;14.20;37.40
18721;DHT22;9489;50.948;3.114;2024-01-16T12:25:33;13.70;38.70
18721;DHT22;9489;50.948;3.114;2024-01-16T12:28:04;13.50;39.80
18721;DHT22;9489;50.948;3.114;2024-01-16T12:30:31;13.60;38.40
18721;DHT22;9489;50.948;3.114;2024-01-16T12:33:07;13.30;38.90
18721;DHT22;9489;50.948;3.114;2024-01-16T12:35:41;13.00;40.10
18721;DHT22;9489;50.948;3.114;2024-01-16T12:38:08;12.90;41.20
18721;DHT22;9489;50.948;3.114;2024-01-16T12:40:49;12.90;40.60
18721;DHT22;9489;50.948;3.114;2024-01-16T12:43:17;12.80;40.50
18721;DHT22;9489;50.948;3.114;2024-01-16T12:45:44;11.50;42.20
18721;DHT22;9489;50.948;3.114;2024-01-16T12:48:10;9.60;46.30
18721;DHT22;9489;50.948;3.114;2024-01-16T12:50:37;8.70;49.40
18721;DHT22;9489;50.948;3.114;2024-01-16T12:53:08;8.10;53.40
18721;DHT22;9489;50.948;3.114;2024-01-16T12:55:36;7.40;57.30
18721;DHT22;9489;50.948;3.114;2024-01-16T12:58:18;6.90;63.70
18721;DHT22;9489;50.948;3.114;2024-01-16T13:00:47;6.40;70.20
18721;DHT22;9489;50.948;3.114;2024-01-16T13:03:24;6.30;76.30
18721;DHT22;9489;50.948;3.114;2024-01-16T13:05:57;6.00;82.20
18721;DHT22;9489;50.948;3.114;2024-01-16T13:08:24;5.80;84.90
18721;DHT22;9489;50.948;3.114;2024-01-16T13:11:18;5.70;90.10
18721;DHT22;9489;50.948;3.114;2024-01-16T13:13:47;5.60;91.70
18721;DHT22;9489;50.948;3.114;2024-01-16T13:16:14;5.50;91.80
18721;DHT22;9489;50.948;3.114;2024-01-16T13:18:40;5.40;93.20
18721;DHT22;9489;50.948;3.114;2024-01-16T13:21:06;5.30;94.40
18721;DHT22;9489;50.948;3.114;2024-01-16T13:23:31;5.20;96.40
18721;DHT22;9489;50.948;3.114;2024-01-16T13:25:57;5.20;94.80
18721;DHT22;9489;50.948;3.114;2024-01-16T13:28:27;5.10;93.90
18721;DHT22;9489;50.948;3.114;2024-01-16T13:30:54;5.10;93.60
18721;DHT22;9489;50.948;3.114;2024-01-16T13:33:21;5.10;93.70
18721;DHT22;9489;50.948;3.114;2024-01-16T13:35:47;5.00;93.80
18721;DHT22;9489;50.948;3.114;2024-01-16T13:38:13;5.10;94.10
18721;DHT22;9489;50.948;3.114;2024-01-16T13:40:41;5.00;93.60
18721;DHT22;9489;50.948;3.114;2024-01-16T13:43:07;5.00;94.80
18721;DHT22;9489;50.948;3.114;2024-01-16T13:45:34;5.00;93.60
18721;DHT22;9489;50.948;3.114;2024-01-16T13:48:01;5.00;93.10
18721;DHT22;9489;50.948;3.114;2024-01-16T13:50:28;4.90;91.60
18721;DHT22;9489;50.948;3.114;2024-01-16T13:52:54;4.80;91.10
18721;DHT22;9489;50.948;3.114;2024-01-16T13:55:20;4.80;90.40
18721;DHT22;9489;50.948;3.114;2024-01-16T13:57:45;4.80;90.30
18721;DHT22;9489;50.948;3.114;2024-01-16T14:00:13;4.80;90.00
18721;DHT22;9489;50.948;3.114;2024-01-16T14:05:13;4.80;86.50
18721;DHT22;9489;50.948;3.114;2024-01-16T14:07:50;4.80;87.10
18721;DHT22;9489;50.948;3.114;2024-01-16T14:10:17;4.80;87.80
18721;DHT22;9489;50.948;3.114;2024-01-16T14:12:43;4.80;86.80
18721;DHT22;9489;50.948;3.114;2024-01-16T14:15:14;4.80;84.70
18721;DHT22;9489;50.948;3.114;2024-01-16T14:17:53;4.80;80.20
18721;DHT22;9489;50.948;3.114;2024-01-16T14:20:20;4.80;80.30
18721;DHT22;9489;50.948;3.114;2024-01-16T14:22:52;4.80;81.10
18721;DHT22;9489;50.948;3.114;2024-01-16T14:25:18;4.80;81.80
18721;DHT22;9489;50.948;3.114;2024-01-16T14:27:57;4.70;81.30
18721;DHT22;9489;50.948;3.114;2024-01-16T14:30:23;4.70;79.50
18721;DHT22;9489;50.948;3.114;2024-01-16T14:32:51;4.70;79.10
18721;DHT22;9489;50.948;3.114;2024-01-16T14:35:17;4.80;81.10
18721;DHT22;9489;50.948;3.114;2024-01-16T14:37:43;4.70;82.00
18721;DHT22;9489;50.948;3.114;2024-01-16T14:40:10;4.70;82.70
18721;DHT22;9489;50.948;3.114;2024-01-16T14:42:42;4.70;83.40
18721;DHT22;9489;50.948;3.114;2024-01-16T14:45:13;4.70;84.90
18721;DHT22;9489;50.948;3.114;2024-01-16T14:47:39;4.60;84.40
18721;DHT22;9489;50.948;3.114;2024-01-16T14:50:08;4.60;84.60
18721;DHT22;9489;50.948;3.114;2024-01-16T14:52:35;4.50;85.60
18721;DHT22;9489;50.948;3.114;2024-01-16T14:55:01;4.50;86.80
18721;DHT22;9489;50.948;3.114;2024-01-16T14:57:27;4.50;86.80
18721;DHT22;9489;50.948;3.114;2024-01-16T14:59:56;4.50;86.40
18721;DHT22;9489;50.948;3.114;2024-01-16T15:02:22;4.50;86.10
18721;DHT22;9489;50.948;3.114;2024-01-16T15:04:48;4.50;85.80
18721;DHT22;9489;50.948;3.114;2024-01-16T15:07:14;4.50;86.20
18721;DHT22;9489;50.948;3.114;2024-01-16T15:09:40;4.40;86.60
18721;DHT22;9489;50.948;3.114;2024-01-16T15:12:06;4.40;86.00
18721;DHT22;9489;50.948;3.114;2024-01-16T15:14:35;4.40;85.60
18721;DHT22;9489;50.948;3.114;2024-01-16T15:17:02;4.40;87.60
18721;DHT22;9489;50.948;3.114;2024-01-16T15:19:28;4.30;88.50
18721;DHT22;9489;50.948;3.114;2024-01-16T15:21:54;4.20;90.00
18721;DHT22;9489;50.948;3.114;2024-01-16T15:24:20;4.20;91.80
18721;DHT22;9489;50.948;3.114;2024-01-16T15:26:52;4.20;94.50
18721;DHT22;9489;50.948;3.114;2024-01-16T15:29:19;4.10;97.00
18721;DHT22;9489;50.948;3.114;2024-01-16T15:31:45;4.00;98.70
18721;DHT22;9489;50.948;3.114;2024-01-16T15:34:11;4.10;99.60
18721;DHT22;9489;50.948;3.114;2024-01-16T15:36:37;4.00;99.90
18721;DHT22;9489;50.948;3.114;2024-01-16T15:39:02;3.90;99.90
18721;DHT22;9489;50.948;3.114;2024-01-16T15:41:29;3.90;99.90
18721;DHT22;9489;50.948;3.114;2024-01-16T15:43:55;3.90;99.90
18721;DHT22;9489;50.948;3.114;2024-01-16T15:46:20;3.80;99.90
18721;DHT22;9489;50.948;3.114;2024-01-16T15:48:46;3.70;99.90
18721;DHT22;9489;50.948;3.114;2024-01-16T15:51:14;3.60;99.90
18721;DHT22;9489;50.948;3.114;2024-01-16T15:53:41;3.50;99.90
18721;DHT22;9489;50.948;3.114;2024-01-16T15:56:07;3.50;99.90
18721;DHT22;9489;50.948;3.114;2024-01-16T15:58:33;3.50;99.90
18721;DHT22;9489;50.948;3.114;2024-01-16T16:00:59;3.40;99.90
18721;DHT22;9489;50.948;3.114;2024-01-16T16:03:25;3.30;99.90
18721;DHT22;9489;50.948;3.114;2024-01-16T16:05:51;3.20;99.90
18721;DHT22;9489;50.948;3.114;2024-01-16T16:08:18;3.20;99.90
18721;DHT22;9489;50.948;3.114;2024-01-16T16:10:45;3.10;99.90
18721;DHT22;9489;50.948;3.114;2024-01-16T16:13:12;3.10;99.90
18721;DHT22;9489;50.948;3.114;2024-01-16T16:15:40;3.00;99.90